Time;durP1;ratioP1;P1;durP2;ratioP2;P2;SDS_P1;SDS_P2;PMS_P1;PMS_P2;Temp;Humidity;BMP_temperature;BMP_pressure;BME280_temperature;BME280_humidity;BME280_pressure;Samples;Min_cycle;Max_cycle;Signal;HPM_P1;HPM_P2
2022/06/26 00:00:25;;;;;;;1.05;0.95;;;23.40;50.30;;;;;;6269460;28;20025;-71
2022/06/26 00:03:27;;;;;;;0.82;0.80;;;23.40;50.40;;;;;;6270796;28;20025;-70
2022/06/26 00:06:29;;;;;;;1.08;0.98;;;23.30;50.20;;;;;;6269326;28;20040;-70
2022/06/26 00:09:30;;;;;;;1.55;1.23;;;23.30;50.40;;;;;;6270417;28;20025;-71
2022/06/26 00:12:32;;;;;;;0.95;0.90;;;23.40;50.40;;;;;;6268839;28;20045;-70
2022/06/26 00:15:33;;;;;;;1.20;1.10;;;23.30;50.30;;;;;;6269962;28;20413;-71
2022/06/26 00:18:34;;;;;;;1.35;0.90;;;23.30;50.30;;;;;;6270235;28;20040;-70
2022/06/26 00:21:34;;;;;;;1.17;1.05;;;23.40;50.50;;;;;;6270353;28;20456;-70
2022/06/26 00:24:37;;;;;;;1.08;0.95;;;23.30;50.40;;;;;;6269840;28;20036;-69
2022/06/26 00:27:38;;;;;;;0.85;0.80;;;23.40;50.50;;;;;;6269811;28;20107;-70
2022/06/26 00:30:38;;;;;;;1.00;0.90;;;23.40;50.50;;;;;;6269845;28;20043;-69
2022/06/26 00:33:39;;;;;;;1.05;0.90;;;23.30;50.40;;;;;;6268709;28;20032;-70
2022/06/26 00:36:40;;;;;;;1.67;1.00;;;23.40;50.60;;;;;;6269943;28;20013;-70
2022/06/26 00:39:41;;;;;;;1.13;1.02;;;23.30;50.50;;;;;;6269586;28;20025;-70
2022/06/26 00:42:42;;;;;;;0.80;0.80;;;23.30;50.60;;;;;;6269455;28;20021;-69
2022/06/26 00:45:43;;;;;;;1.25;1.00;;;23.30;50.50;;;;;;6269496;28;20079;-70
2022/06/26 00:48:43;;;;;;;1.10;1.00;;;23.30;50.50;;;;;;6267873;28;20025;-70
2022/06/26 00:51:46;;;;;;;0.98;0.88;;;23.30;50.50;;;;;;6269440;28;20013;-69
2022/06/26 00:54:49;;;;;;;0.90;0.90;;;23.30;50.70;;;;;;6269080;28;20077;-70
2022/06/26 00:57:51;;;;;;;1.05;0.95;;;23.30;50.70;;;;;;6269218;28;20028;-70
2022/06/26 01:00:51;;;;;;;1.35;1.25;;;23.30;50.60;;;;;;6267843;28;20028;-69
2022/06/26 01:03:52;;;;;;;1.88;1.27;;;23.30;50.70;;;;;;6268457;28;20484;-70
2022/06/26 01:06:54;;;;;;;1.40;0.90;;;23.30;50.70;;;;;;6267551;28;20551;-70
2022/06/26 01:09:55;;;;;;;1.45;1.30;;;23.30;50.70;;;;;;6267862;28;20206;-69
2022/06/26 01:12:56;;;;;;;1.10;1.00;;;23.30;50.70;;;;;;6268998;28;20028;-70
2022/06/26 01:15:57;;;;;;;1.08;1.02;;;23.30;50.70;;;;;;6267600;28;20032;-69
2022/06/26 01:18:58;;;;;;;0.80;0.80;;;23.30;50.70;;;;;;6267702;28;20021;-70
2022/06/26 01:21:59;;;;;;;1.15;1.00;;;23.30;50.80;;;;;;6268352;28;20021;-70
2022/06/26 01:25:00;;;;;;;1.10;1.00;;;23.30;50.70;;;;;;6268349;28;20040;-70
2022/06/26 01:28:01;;;;;;;1.35;1.00;;;23.30;50.80;;;;;;6267457;28;20029;-70
2022/06/26 01:31:02;;;;;;;1.52;1.10;;;23.30;50.80;;;;;;6268611;28;20039;-70
2022/06/26 01:34:05;;;;;;;1.38;1.05;;;23.30;50.90;;;;;;6269005;28;20021;-70
2022/06/26 01:37:06;;;;;;;1.20;1.10;;;23.30;50.90;;;;;;6268675;28;20029;-70
2022/06/26 01:40:07;;;;;;;1.13;0.98;;;23.30;50.90;;;;;;6268580;28;20047;-70
2022/06/26 01:43:09;;;;;;;1.40;1.10;;;23.30;50.80;;;;;;6267504;28;20120;-70
2022/06/26 01:46:10;;;;;;;1.45;1.35;;;23.30;50.80;;;;;;6268653;28;20159;-69
2022/06/26 01:49:10;;;;;;;1.42;1.15;;;23.30;50.90;;;;;;6268583;28;20029;-70
2022/06/26 01:52:11;;;;;;;1.15;1.00;;;23.30;50.90;;;;;;6268373;28;20033;-70
2022/06/26 01:55:12;;;;;;;1.17;1.00;;;23.30;51.00;;;;;;6268494;28;20079;-69
2022/06/26 01:58:13;;;;;;;1.35;1.20;;;23.30;51.00;;;;;;6268371;28;20048;-70
2022/06/26 02:01:14;;;;;;;1.13;1.00;;;23.30;51.00;;;;;;6268242;28;20033;-70
2022/06/26 02:04:16;;;;;;;1.15;1.05;;;23.30;51.00;;;;;;6270604;28;20025;-70
2022/06/26 02:07:18;;;;;;;1.13;1.02;;;23.30;51.10;;;;;;6271766;28;20040;-70
2022/06/26 02:13:40;;;;;;;1.50;1.05;;;23.30;51.00;;;;;;6273495;28;20441;-68
2022/06/26 02:16:42;;;;;;;1.05;1.00;;;23.30;51.10;;;;;;6273015;28;20028;-68
2022/06/26 02:19:45;;;;;;;1.13;0.90;;;23.30;51.10;;;;;;6272753;28;20021;-69
2022/06/26 02:22:46;;;;;;;1.45;1.10;;;23.30;51.00;;;;;;6273251;28;20098;-70
2022/06/26 02:25:47;;;;;;;1.20;1.10;;;23.30;51.10;;;;;;6272589;28;20021;-69
2022/06/26 02:28:49;;;;;;;1.70;1.38;;;23.30;51.10;;;;;;6272654;28;20638;-70
2022/06/26 02:31:49;;;;;;;1.70;1.20;;;23.30;51.10;;;;;;6270993;28;20051;-69
2022/06/26 02:34:50;;;;;;;1.40;1.10;;;23.30;51.10;;;;;;6272711;28;20670;-69
2022/06/26 02:37:52;;;;;;;0.98;0.90;;;23.30;51.10;;;;;;6272376;28;20029;-70
2022/06/26 02:40:53;;;;;;;1.10;1.00;;;23.30;51.10;;;;;;6271168;28;20025;-70
2022/06/26 02:43:54;;;;;;;1.30;1.10;;;23.30;51.10;;;;;;6270932;28;20413;-70
2022/06/26 02:46:55;;;;;;;1.20;1.10;;;23.30;51.20;;;;;;6271121;28;20029;-70
2022/06/26 02:49:55;;;;;;;1.65;1.13;;;23.30;51.10;;;;;;6271976;28;20028;-70
2022/06/26 02:52:56;;;;;;;1.30;1.20;;;23.30;51.20;;;;;;6272162;28;20064;-69
2022/06/26 02:55:57;;;;;;;1.17;1.00;;;23.30;51.20;;;;;;6271767;28;20527;-69
2022/06/26 02:58:57;;;;;;;1.38;1.27;;;23.30;51.20;;;;;;6271836;28;20056;-70
2022/06/26 03:01:58;;;;;;;1.27;1.17;;;23.30;51.20;;;;;;6270304;28;20061;-70
2022/06/26 03:04:59;;;;;;;1.63;1.27;;;23.30;51.20;;;;;;6271757;28;20119;-69
2022/06/26 03:08:00;;;;;;;1.23;1.10;;;23.30;51.20;;;;;;6271314;28;20083;-70
2022/06/26 03:11:01;;;;;;;1.30;1.10;;;23.30;51.30;;;;;;6270289;28;20505;-70
2022/06/26 03:14:02;;;;;;;1.13;1.00;;;23.20;51.20;;;;;;6271471;28;20052;-70
2022/06/26 03:17:03;;;;;;;1.20;1.10;;;23.20;51.20;;;;;;6270489;28;20033;-70
2022/06/26 03:20:08;;;;;;;1.20;1.10;;;23.20;51.20;;;;;;6269804;28;20025;-69
2022/06/26 03:23:09;;;;;;;1.40;1.10;;;23.30;51.30;;;;;;6270368;28;20025;-70
2022/06/26 03:26:10;;;;;;;1.10;1.00;;;23.30;51.30;;;;;;6271220;28;20064;-70
2022/06/26 03:29:11;;;;;;;1.38;1.20;;;23.30;51.30;;;;;;6271026;28;20033;-69
2022/06/26 03:32:12;;;;;;;1.50;1.40;;;23.30;51.40;;;;;;6269319;28;20375;-69
2022/06/26 03:35:13;;;;;;;1.60;1.23;;;23.30;51.30;;;;;;6270856;28;20029;-70
2022/06/26 03:38:15;;;;;;;1.33;1.02;;;23.20;51.20;;;;;;6270956;28;20505;-70
2022/06/26 03:41:16;;;;;;;1.23;1.10;;;23.30;51.40;;;;;;6270942;28;20021;-70
2022/06/26 03:44:17;;;;;;;1.17;1.08;;;23.20;51.30;;;;;;6269239;28;20049;-70
2022/06/26 03:47:17;;;;;;;1.20;1.02;;;23.20;51.30;;;;;;6270666;28;20056;-71
2022/06/26 03:50:18;;;;;;;1.75;1.25;;;23.30;51.40;;;;;;6269465;28;20025;-70
2022/06/26 03:53:19;;;;;;;1.40;1.20;;;23.20;51.30;;;;;;6269220;28;20425;-70
2022/06/26 03:56:20;;;;;;;1.50;1.20;;;23.20;51.40;;;;;;6270531;28;20071;-69
2022/06/26 03:59:20;;;;;;;1.25;1.02;;;23.20;51.30;;;;;;6269198;28;20227;-70
2022/06/26 04:02:21;;;;;;;1.70;1.13;;;23.20;51.40;;;;;;6269570;28;20032;-70
2022/06/26 04:05:22;;;;;;;1.52;1.30;;;23.20;51.30;;;;;;6270361;28;20104;-70
2022/06/26 04:08:23;;;;;;;1.08;0.98;;;23.20;51.50;;;;;;6268924;28;20108;-69
2022/06/26 04:11:24;;;;;;;1.60;1.30;;;23.20;51.40;;;;;;6270316;28;20429;-70
2022/06/26 04:14:25;;;;;;;1.20;1.10;;;23.20;51.40;;;;;;6268904;28;20063;-70
2022/06/26 04:17:25;;;;;;;1.50;1.40;;;23.20;51.40;;;;;;6269981;28;20163;-69
2022/06/26 04:20:26;;;;;;;1.48;1.10;;;23.20;51.40;;;;;;6270082;28;20540;-70
2022/06/26 04:23:27;;;;;;;1.30;1.20;;;23.20;51.40;;;;;;6268201;28;20079;-69
2022/06/26 04:26:28;;;;;;;1.58;1.42;;;23.20;51.50;;;;;;6269429;28;20506;-69
2022/06/26 04:29:29;;;;;;;1.10;1.00;;;23.20;51.50;;;;;;6269460;28;20805;-68
2022/06/26 04:32:29;;;;;;;1.20;1.10;;;23.20;51.50;;;;;;6269710;28;20032;-70
2022/06/26 04:35:31;;;;;;;0.85;0.82;;;23.20;51.50;;;;;;6269467;28;20025;-70
2022/06/26 04:38:31;;;;;;;1.23;1.00;;;23.20;51.50;;;;;;6269245;28;20025;-70
2022/06/26 04:41:34;;;;;;;0.93;0.93;;;23.20;51.50;;;;;;6268274;28;20083;-69
2022/06/26 04:44:35;;;;;;;1.45;1.20;;;23.20;51.50;;;;;;6268053;28;20674;-70
2022/06/26 04:47:36;;;;;;;1.13;1.02;;;23.20;51.50;;;;;;6268982;28;20032;-69
2022/06/26 04:50:37;;;;;;;1.10;1.00;;;23.20;51.60;;;;;;6269636;28;20393;-69
2022/06/26 04:53:38;;;;;;;1.20;1.10;;;23.20;51.60;;;;;;6269125;28;20051;-70
2022/06/26 04:56:39;;;;;;;1.38;1.27;;;23.20;51.60;;;;;;6268808;28;20017;-70
2022/06/26 05:00:36;;;;;;;1.08;0.98;;;23.20;51.50;;;;;;6267218;28;20025;-70
2022/06/26 05:03:37;;;;;;;1.33;1.23;;;23.20;51.60;;;;;;6268890;28;20017;-69
2022/06/26 05:06:37;;;;;;;1.50;1.20;;;23.20;51.60;;;;;;6268632;28;20021;-68
2022/06/26 05:09:38;;;;;;;1.30;1.17;;;23.20;51.60;;;;;;6269024;28;20394;-69
2022/06/26 05:12:39;;;;;;;1.10;1.00;;;23.20;51.60;;;;;;6268642;28;20070;-70
2022/06/26 05:15:39;;;;;;;1.10;1.00;;;23.20;51.60;;;;;;6268875;28;20103;-70
2022/06/26 05:18:40;;;;;;;1.02;0.93;;;23.20;51.60;;;;;;6267397;28;20137;-70
2022/06/26 05:21:41;;;;;;;1.30;1.20;;;23.20;51.70;;;;;;6268683;28;20432;-69
2022/06/26 05:24:42;;;;;;;1.10;1.00;;;23.20;51.60;;;;;;6268570;28;20029;-70
2022/06/26 05:27:43;;;;;;;2.33;1.10;;;23.20;51.60;;;;;;6267232;28;20519;-70
2022/06/26 05:30:44;;;;;;;1.48;1.30;;;23.20;51.60;;;;;;6267219;28;20033;-69
2022/06/26 05:33:45;;;;;;;1.23;1.13;;;23.20;51.70;;;;;;6267044;28;20112;-70
2022/06/26 05:36:45;;;;;;;1.35;1.20;;;23.20;51.60;;;;;;6268448;28;20028;-70
2022/06/26 05:39:46;;;;;;;1.30;1.17;;;23.20;51.70;;;;;;6271557;28;20143;-69
2022/06/26 05:42:47;;;;;;;1.42;1.13;;;23.20;51.70;;;;;;6272240;28;20628;-70
2022/06/26 05:45:47;;;;;;;1.17;1.08;;;23.20;51.70;;;;;;6273451;28;20478;-70
2022/06/26 05:48:49;;;;;;;1.25;1.10;;;23.20;51.70;;;;;;6273240;28;20044;-70
2022/06/26 05:51:50;;;;;;;1.00;0.90;;;23.20;51.70;;;;;;6272125;28;20026;-70
2022/06/26 05:54:52;;;;;;;1.13;1.02;;;23.20;52.50;;;;;;6273401;28;20441;-69
2022/06/26 05:57:52;;;;;;;1.80;1.10;;;23.20;51.70;;;;;;6271947;28;20025;-69
2022/06/26 06:00:53;;;;;;;1.23;1.13;;;23.20;51.70;;;;;;6273147;28;20025;-69
2022/06/26 06:03:54;;;;;;;1.27;1.02;;;23.20;51.70;;;;;;6273129;28;20101;-70
2022/06/26 06:06:55;;;;;;;1.10;1.00;;;23.20;51.80;;;;;;6272493;28;20413;-69
2022/06/26 06:09:55;;;;;;;1.20;1.10;;;23.20;51.70;;;;;;6272997;28;20449;-69
2022/06/26 06:12:56;;;;;;;1.30;1.20;;;23.20;51.70;;;;;;6273033;28;20098;-69
2022/06/26 06:15:57;;;;;;;0.82;0.80;;;23.20;51.80;;;;;;6271712;28;20064;-70
2022/06/26 06:18:58;;;;;;;1.17;1.08;;;23.20;51.80;;;;;;6271341;28;20044;-70
2022/06/26 06:21:58;;;;;;;1.38;0.95;;;23.20;51.70;;;;;;6272707;28;20036;-69
2022/06/26 06:24:59;;;;;;;1.00;0.90;;;23.20;51.10;;;;;;6272413;28;20031;-70
2022/06/26 06:28:00;;;;;;;1.10;1.00;;;23.20;49.90;;;;;;6271011;28;20029;-69
2022/06/26 06:31:01;;;;;;;1.15;1.05;;;23.20;49.30;;;;;;6270800;28;20048;-70
2022/06/26 06:34:01;;;;;;;1.10;1.00;;;23.30;49.00;;;;;;6272270;28;20103;-69
2022/06/26 06:37:02;;;;;;;1.15;1.05;;;23.30;48.70;;;;;;6271862;28;20032;-69
2022/06/26 06:40:03;;;;;;;3.45;1.00;;;23.40;48.40;;;;;;6271973;28;20029;-68
2022/06/26 06:43:09;;;;;;;1.38;1.08;;;23.50;48.30;;;;;;6272063;28;20045;-70
2022/06/26 06:46:10;;;;;;;1.40;1.20;;;23.50;48.10;;;;;;6271900;28;20446;-69
2022/06/26 06:49:11;;;;;;;0.95;0.90;;;23.60;48.50;;;;;;6271418;28;20029;-69
2022/06/26 06:52:11;;;;;;;1.25;1.15;;;23.70;47.80;;;;;;6271649;28;20052;-70
2022/06/26 06:55:12;;;;;;;1.25;0.88;;;23.70;47.70;;;;;;6271360;28;20052;-69
2022/06/26 06:58:13;;;;;;;1.02;0.93;;;23.70;47.50;;;;;;6271348;28;20064;-68
2022/06/26 07:01:14;;;;;;;1.05;0.95;;;23.70;47.40;;;;;;6270554;28;20029;-70
2022/06/26 07:04:15;;;;;;;0.90;0.90;;;23.70;47.40;;;;;;6271543;28;20127;-69
2022/06/26 07:07:16;;;;;;;1.00;0.90;;;23.70;47.30;;;;;;6269960;28;20115;-69
2022/06/26 07:10:16;;;;;;;0.80;0.80;;;23.70;47.30;;;;;;6271320;28;20106;-69
2022/06/26 07:13:17;;;;;;;1.05;0.95;;;23.70;47.10;;;;;;6271258;28;20029;-70
2022/06/26 07:16:20;;;;;;;1.10;1.00;;;23.80;47.10;;;;;;6269826;28;20021;-69
2022/06/26 07:19:21;;;;;;;0.80;0.80;;;23.80;47.10;;;;;;6270173;28;20041;-69
2022/06/26 07:22:21;;;;;;;0.80;0.80;;;23.80;46.90;;;;;;6271155;28;20406;-69
2022/06/26 07:25:22;;;;;;;1.10;1.00;;;23.80;46.90;;;;;;6271177;28;20068;-69
2022/06/26 07:28:23;;;;;;;0.88;0.88;;;23.80;46.80;;;;;;6269379;28;20078;-70
2022/06/26 07:31:24;;;;;;;0.70;0.70;;;23.80;46.80;;;;;;6269528;28;20473;-69
2022/06/26 07:34:25;;;;;;;0.88;0.80;;;23.80;46.70;;;;;;6269501;28;20166;-69
2022/06/26 07:37:26;;;;;;;0.80;0.80;;;23.80;46.70;;;;;;6269409;28;20753;-70
2022/06/26 07:40:27;;;;;;;0.80;0.70;;;23.80;46.60;;;;;;6270482;28;20025;-69
2022/06/26 07:43:28;;;;;;;0.70;0.70;;;23.80;46.40;;;;;;6269241;28;20106;-69
2022/06/26 07:46:28;;;;;;;0.65;0.65;;;23.90;46.50;;;;;;6269114;28;20040;-70
2022/06/26 07:49:29;;;;;;;0.85;0.85;;;23.80;46.40;;;;;;6270332;28;20158;-69
2022/06/26 07:52:30;;;;;;;0.63;0.63;;;23.80;46.30;;;;;;6268822;28;20124;-70
2022/06/26 07:55:31;;;;;;;0.80;0.80;;;23.90;46.30;;;;;;6270003;28;20484;-69
2022/06/26 07:58:32;;;;;;;1.05;0.95;;;23.80;46.30;;;;;;6268780;28;20150;-70
2022/06/26 08:01:33;;;;;;;0.70;0.70;;;23.90;46.30;;;;;;6267699;28;20035;-70
2022/06/26 08:04:34;;;;;;;1.05;0.93;;;23.80;46.20;;;;;;6268505;28;20032;-69
2022/06/26 08:07:35;;;;;;;0.75;0.75;;;23.90;46.20;;;;;;6268550;28;20124;-69
2022/06/26 08:10:36;;;;;;;0.85;0.75;;;23.90;46.10;;;;;;6268328;28;20052;-69
2022/06/26 08:13:37;;;;;;;0.75;0.75;;;23.80;46.10;;;;;;6269910;28;20025;-69
2022/06/26 08:16:37;;;;;;;1.15;1.05;;;23.80;46.10;;;;;;6269405;28;20025;-70
2022/06/26 08:19:38;;;;;;;0.88;0.82;;;23.80;46.00;;;;;;6268366;28;20158;-68
2022/06/26 08:22:39;;;;;;;0.65;0.65;;;23.90;46.00;;;;;;6269411;28;20036;-68
2022/06/26 08:25:40;;;;;;;0.73;0.68;;;23.90;46.00;;;;;;6268127;28;20079;-69
2022/06/26 08:28:41;;;;;;;0.77;0.70;;;23.90;46.00;;;;;;6267893;28;20604;-69
2022/06/26 08:31:41;;;;;;;1.60;0.77;;;23.80;45.90;;;;;;6269170;28;20019;-70
2022/06/26 08:34:42;;;;;;;0.60;0.60;;;23.80;45.90;;;;;;6268999;28;20035;-69
2022/06/26 08:37:45;;;;;;;0.93;0.77;;;23.80;45.80;;;;;;6269050;28;20025;-70
2022/06/26 08:40:47;;;;;;;0.75;0.75;;;23.90;46.50;;;;;;6267859;28;20032;-69
2022/06/26 08:43:48;;;;;;;0.60;0.60;;;23.90;45.80;;;;;;6267521;28;20060;-69
2022/06/26 08:46:49;;;;;;;0.80;0.75;;;23.90;45.70;;;;;;6267512;28;20475;-70
2022/06/26 08:49:55;;;;;;;0.70;0.70;;;23.90;45.60;;;;;;6268093;28;20028;-69
2022/06/26 08:52:59;;;;;;;1.48;0.80;;;23.90;45.60;;;;;;6267289;28;20482;-69
2022/06/26 08:56:01;;;;;;;0.60;0.60;;;23.90;45.60;;;;;;6268366;28;20017;-70
2022/06/26 08:59:02;;;;;;;0.75;0.75;;;23.90;45.60;;;;;;6267575;28;20033;-70
2022/06/26 09:02:03;;;;;;;0.82;0.65;;;23.90;45.60;;;;;;6260412;28;20032;-68
2022/06/26 09:05:05;;;;;;;0.80;0.60;;;23.90;46.80;;;;;;6255710;28;20041;-67
2022/06/26 09:08:15;;;;;;;0.70;0.70;;;24.00;45.80;;;;;;6253231;28;20501;-67
2022/06/26 09:11:17;;;;;;;0.60;0.52;;;24.00;45.60;;;;;;6265901;28;20125;-67
2022/06/26 09:14:18;;;;;;;1.02;0.60;;;24.00;45.60;;;;;;6265877;28;20055;-68
2022/06/26 09:17:23;;;;;;;0.57;0.50;;;24.00;45.60;;;;;;6265491;28;20079;-67
2022/06/26 09:20:23;;;;;;;0.82;0.80;;;24.10;45.60;;;;;;6265805;28;20043;-67
2022/06/26 09:23:24;;;;;;;0.50;0.50;;;24.10;45.30;;;;;;6248293;28;20737;-65
2022/06/26 09:26:25;;;;;;;0.60;0.60;;;24.10;45.30;;;;;;6260715;28;20687;-67
2022/06/26 09:29:26;;;;;;;3.67;0.80;;;24.10;45.20;;;;;;6264840;28;20033;-68
2022/06/26 09:32:31;;;;;;;1.50;0.70;;;24.20;45.80;;;;;;6265963;28;20029;-67
2022/06/26 09:35:31;;;;;;;0.90;0.70;;;24.30;45.40;;;;;;6265509;28;20493;-66
2022/06/26 09:38:34;;;;;;;1.45;0.93;;;24.30;45.40;;;;;;6265604;28;20032;-66
2022/06/26 09:41:35;;;;;;;1.30;0.60;;;24.30;45.60;;;;;;6265615;28;20033;-66
2022/06/26 09:44:44;;;;;;;2.55;0.77;;;24.30;45.60;;;;;;6264396;28;20063;-66
2022/06/26 09:47:45;;;;;;;0.70;0.70;;;24.20;45.40;;;;;;6265135;28;20032;-67
2022/06/26 09:50:46;;;;;;;0.82;0.63;;;24.20;45.30;;;;;;6260088;28;20014;-67
2022/06/26 09:53:48;;;;;;;0.45;0.45;;;24.30;45.30;;;;;;6275171;28;20017;-67
2022/06/26 09:56:49;;;;;;;0.70;0.52;;;24.20;45.20;;;;;;6278022;28;20390;-67
2022/06/26 09:59:49;;;;;;;0.70;0.60;;;24.20;45.10;;;;;;6265925;28;20032;-66
2022/06/26 10:06:26;;;;;;;1.95;0.73;;;24.20;45.00;;;;;;6265455;28;20029;-67
2022/06/26 10:09:28;;;;;;;0.77;0.70;;;24.30;45.00;;;;;;6265301;28;20021;-67
2022/06/26 10:12:29;;;;;;;0.50;0.50;;;24.20;44.90;;;;;;6265429;28;20474;-67
2022/06/26 10:15:53;;;;;;;0.50;0.50;;;24.30;44.80;;;;;;6251479;28;20051;-67
2022/06/26 10:19:26;;;;;;;0.68;0.68;;;24.30;44.80;;;;;;6252136;28;20021;-65
2022/06/26 10:22:37;;;;;;;0.85;0.63;;;24.30;44.80;;;;;;6265579;28;20017;-67
2022/06/26 10:25:45;;;;;;;0.70;0.70;;;24.40;45.00;;;;;;6266063;28;20106;-66
2022/06/26 10:29:03;;;;;;;1.17;0.70;;;24.40;44.50;;;;;;6268528;28;20060;-67
2022/06/26 10:32:06;;;;;;;0.98;0.60;;;24.40;44.90;;;;;;6269533;28;20704;-67
2022/06/26 10:35:08;;;;;;;0.70;0.60;;;24.30;44.80;;;;;;6269280;28;20021;-67
2022/06/26 10:38:23;;;;;;;0.60;0.60;;;24.30;45.20;;;;;;6269308;28;20060;-68
2022/06/26 10:45:06;;;;;;;0.82;0.60;;;24.50;44.70;;;;;;6269509;28;20041;-68
2022/06/26 10:48:21;;;;;;;1.40;0.55;;;24.40;44.80;;;;;;6269021;28;20385;-69
2022/06/26 10:51:30;;;;;;;0.52;0.50;;;24.40;44.90;;;;;;6268224;28;20044;-68
2022/06/26 10:54:33;;;;;;;0.80;0.60;;;24.40;44.80;;;;;;6272217;28;20047;-68
2022/06/26 10:57:36;;;;;;;3.10;0.63;;;24.40;44.70;;;;;;6268878;28;20029;-68
2022/06/26 11:00:37;;;;;;;0.60;0.60;;;24.40;44.70;;;;;;6269384;28;20032;-68
2022/06/26 11:03:39;;;;;;;0.55;0.40;;;24.40;44.60;;;;;;6269332;28;20535;-68
2022/06/26 11:06:40;;;;;;;0.55;0.55;;;24.40;44.70;;;;;;6267630;28;20033;-68
2022/06/26 11:09:42;;;;;;;1.45;0.75;;;24.40;44.60;;;;;;6269388;28;20536;-67
2022/06/26 11:12:45;;;;;;;0.60;0.60;;;24.40;44.60;;;;;;6268377;28;20053;-67
2022/06/26 11:15:46;;;;;;;3.63;0.70;;;24.40;45.70;;;;;;6268871;28;20484;-67
2022/06/26 11:18:47;;;;;;;4.80;0.75;;;24.50;45.60;;;;;;6267727;28;20025;-66
2022/06/26 11:21:47;;;;;;;5.88;0.70;;;24.60;45.10;;;;;;6269093;28;20032;-66
2022/06/26 11:24:49;;;;;;;1.92;0.75;;;24.60;45.30;;;;;;6268944;28;20036;-67
2022/06/26 11:27:52;;;;;;;1.75;0.80;;;24.50;45.10;;;;;;6268900;28;20024;-66
2022/06/26 11:30:53;;;;;;;3.95;0.70;;;24.40;45.10;;;;;;6269379;28;20021;-67
2022/06/26 11:33:54;;;;;;;1.30;0.80;;;24.50;44.90;;;;;;6269195;28;20489;-67
2022/06/26 11:36:57;;;;;;;4.53;0.65;;;24.40;44.80;;;;;;6266897;28;20025;-66
2022/06/26 11:39:58;;;;;;;2.45;1.00;;;24.40;44.80;;;;;;6267675;28;20025;-66
2022/06/26 11:42:59;;;;;;;1.50;0.77;;;24.40;44.80;;;;;;6268515;28;20044;-66
2022/06/26 11:46:03;;;;;;;1.05;0.57;;;24.40;44.70;;;;;;6266980;28;20519;-66
2022/06/26 11:49:04;;;;;;;1.25;0.60;;;24.40;44.50;;;;;;6268581;28;20025;-67
2022/06/26 11:52:07;;;;;;;1.65;0.60;;;24.40;44.60;;;;;;6268749;28;20075;-66
2022/06/26 11:55:08;;;;;;;0.65;0.47;;;24.40;44.50;;;;;;6270823;28;20053;-67
2022/06/26 11:58:09;;;;;;;1.38;0.68;;;24.40;44.50;;;;;;6266601;28;20025;-66
2022/06/26 12:01:11;;;;;;;1.42;0.60;;;24.40;44.40;;;;;;6268262;28;20051;-66
2022/06/26 12:04:12;;;;;;;0.95;0.40;;;24.40;44.40;;;;;;6267581;28;20028;-66
2022/06/26 12:07:13;;;;;;;0.80;0.50;;;24.40;44.30;;;;;;6266291;28;20083;-66
2022/06/26 12:10:28;;;;;;;0.60;0.40;;;24.40;44.40;;;;;;6268102;28;20082;-67
2022/06/26 12:13:33;;;;;;;0.52;0.40;;;24.40;44.40;;;;;;6266683;28;20027;-67
2022/06/26 12:16:47;;;;;;;0.50;0.45;;;24.40;44.40;;;;;;6267526;28;20028;-67
2022/06/26 12:19:48;;;;;;;1.17;0.45;;;24.40;44.30;;;;;;6268169;28;20040;-67
2022/06/26 12:22:55;;;;;;;0.90;0.50;;;24.30;44.80;;;;;;6268058;28;20021;-67
2022/06/26 12:26:07;;;;;;;1.10;0.50;;;24.20;45.40;;;;;;6267651;28;20386;-67
2022/06/26 12:29:11;;;;;;;1.20;0.68;;;24.20;45.80;;;;;;6267549;28;20060;-67
2022/06/26 12:32:12;;;;;;;0.63;0.63;;;24.10;46.10;;;;;;6267006;28;20059;-67
2022/06/26 12:35:12;;;;;;;0.55;0.52;;;24.10;46.40;;;;;;6253960;28;21274;-67
2022/06/26 12:38:18;;;;;;;0.63;0.50;;;24.10;46.60;;;;;;6256370;28;20029;-67
2022/06/26 12:41:18;;;;;;;1.40;0.40;;;24.10;47.40;;;;;;6267365;28;20025;-66
2022/06/26 12:44:19;;;;;;;0.80;0.50;;;24.10;47.00;;;;;;6266841;28;20159;-66
2022/06/26 12:47:20;;;;;;;0.90;0.65;;;24.10;47.30;;;;;;6264232;28;20760;-66
2022/06/26 12:50:21;;;;;;;1.10;0.60;;;24.10;47.50;;;;;;6266913;28;20021;-67
2022/06/26 12:53:21;;;;;;;0.60;0.50;;;24.10;47.50;;;;;;6266484;28;20025;-67
2022/06/26 12:56:22;;;;;;;0.50;0.50;;;24.10;47.50;;;;;;6266017;28;20028;-67
2022/06/26 12:59:23;;;;;;;0.70;0.45;;;24.10;47.80;;;;;;6266994;28;20021;-66
2022/06/26 13:02:23;;;;;;;0.52;0.40;;;24.10;47.70;;;;;;6266862;28;20067;-66
2022/06/26 13:05:24;;;;;;;1.02;0.43;;;24.10;47.90;;;;;;6266571;28;20025;-68
2022/06/26 13:08:25;;;;;;;2.55;0.70;;;24.10;47.80;;;;;;6266164;28;20021;-68
2022/06/26 13:11:27;;;;;;;0.60;0.55;;;24.10;48.00;;;;;;6266882;28;20018;-66
2022/06/26 13:14:28;;;;;;;1.00;0.60;;;24.10;48.00;;;;;;6266393;28;20697;-67
2022/06/26 13:17:29;;;;;;;1.25;0.50;;;24.00;47.90;;;;;;6266357;28;20033;-67
2022/06/26 13:20:30;;;;;;;1.63;0.60;;;24.10;48.80;;;;;;6266372;28;20021;-67
2022/06/26 13:23:31;;;;;;;0.45;0.45;;;24.10;48.50;;;;;;6265684;28;20120;-67
2022/06/26 13:26:32;;;;;;;2.72;0.47;;;24.10;48.40;;;;;;6266046;28;20029;-67
2022/06/26 13:29:32;;;;;;;3.22;0.68;;;24.10;48.60;;;;;;6266410;28;20029;-67
2022/06/26 13:32:33;;;;;;;0.73;0.43;;;24.10;48.60;;;;;;6266118;28;20049;-68
2022/06/26 13:35:35;;;;;;;0.43;0.43;;;24.10;48.60;;;;;;6266325;28;20037;-67
2022/06/26 13:38:36;;;;;;;0.60;0.50;;;24.00;48.50;;;;;;6264610;28;20033;-67
2022/06/26 13:41:37;;;;;;;2.40;0.60;;;24.00;48.50;;;;;;6266193;28;20039;-68
2022/06/26 13:44:37;;;;;;;0.98;0.60;;;24.00;48.50;;;;;;6266079;28;20045;-67
2022/06/26 13:47:42;;;;;;;0.98;0.80;;;24.00;48.50;;;;;;6265457;28;20037;-67
2022/06/26 13:50:42;;;;;;;0.63;0.60;;;24.00;48.60;;;;;;6265441;28;20021;-67
2022/06/26 13:53:43;;;;;;;2.20;0.68;;;24.00;48.80;;;;;;6267066;28;20492;-67
2022/06/26 13:56:44;;;;;;;2.90;0.80;;;24.10;48.60;;;;;;6265471;28;20033;-67
2022/06/26 13:59:45;;;;;;;2.80;0.60;;;24.10;48.90;;;;;;6267195;28;20033;-67
2022/06/26 14:02:46;;;;;;;0.98;0.45;;;24.10;48.90;;;;;;6271329;28;20037;-67
2022/06/26 14:05:47;;;;;;;2.53;0.50;;;24.10;49.00;;;;;;6270516;28;20032;-68
2022/06/26 14:08:48;;;;;;;0.65;0.52;;;24.00;48.90;;;;;;6270938;28;20025;-68
2022/06/26 14:11:48;;;;;;;1.55;0.70;;;24.00;48.90;;;;;;6270787;28;20490;-67
2022/06/26 14:14:49;;;;;;;2.30;0.70;;;24.00;48.90;;;;;;6270680;28;20024;-67
2022/06/26 14:17:50;;;;;;;0.45;0.40;;;24.00;48.90;;;;;;6271255;28;20384;-67
2022/06/26 14:20:52;;;;;;;0.88;0.50;;;24.00;48.90;;;;;;6273140;28;20024;-67
2022/06/26 14:27:12;;;;;;;0.93;0.63;;;24.00;49.00;;;;;;6271218;28;20025;-67
2022/06/26 14:30:12;;;;;;;0.47;0.43;;;24.00;49.00;;;;;;6270992;28;20150;-67
2022/06/26 14:33:16;;;;;;;0.50;0.50;;;24.00;49.00;;;;;;6270508;28;20060;-67
2022/06/26 14:36:17;;;;;;;2.70;0.70;;;24.00;49.00;;;;;;6270094;28;20017;-67
2022/06/26 14:39:18;;;;;;;0.52;0.50;;;24.00;49.00;;;;;;6269779;28;20534;-67
2022/06/26 14:42:19;;;;;;;0.43;0.43;;;24.00;49.00;;;;;;6270146;28;20091;-69
2022/06/26 14:45:20;;;;;;;0.60;0.50;;;24.00;49.80;;;;;;6269442;28;20053;-67
2022/06/26 14:48:20;;;;;;;1.20;0.60;;;24.00;49.10;;;;;;6270178;28;20075;-67
2022/06/26 14:51:21;;;;;;;0.50;0.45;;;24.00;49.10;;;;;;6269414;28;20017;-67
2022/06/26 14:54:24;;;;;;;1.48;0.60;;;24.00;49.10;;;;;;6272681;28;20017;-66
2022/06/26 14:57:24;;;;;;;0.50;0.50;;;24.00;49.20;;;;;;6257091;28;20670;-67
2022/06/26 15:00:26;;;;;;;0.98;0.50;;;24.00;49.20;;;;;;6270066;28;20024;-68
2022/06/26 15:03:27;;;;;;;1.02;0.75;;;24.00;49.20;;;;;;6269566;28;20048;-68
2022/06/26 15:06:28;;;;;;;0.43;0.43;;;24.00;49.20;;;;;;6269660;28;20025;-67
2022/06/26 15:09:29;;;;;;;0.95;0.60;;;24.00;49.20;;;;;;6267736;28;20112;-67
2022/06/26 15:12:31;;;;;;;0.50;0.50;;;24.00;49.30;;;;;;6268588;28;20393;-67
2022/06/26 15:15:32;;;;;;;0.47;0.45;;;24.00;50.00;;;;;;6267466;28;20554;-67
2022/06/26 15:18:32;;;;;;;0.95;0.60;;;24.00;49.30;;;;;;6268687;28;20037;-67
2022/06/26 15:21:33;;;;;;;1.50;0.50;;;24.00;49.30;;;;;;6268691;28;20017;-67
2022/06/26 15:24:34;;;;;;;0.40;0.30;;;24.10;49.70;;;;;;6265990;28;20078;-67
2022/06/26 15:27:35;;;;;;;0.52;0.40;;;24.10;49.80;;;;;;6268257;28;20056;-67
2022/06/26 15:30:36;;;;;;;1.15;0.45;;;24.10;49.70;;;;;;6269203;28;20022;-67
2022/06/26 15:33:37;;;;;;;2.92;0.60;;;24.10;49.80;;;;;;6268912;28;20016;-67
2022/06/26 15:36:38;;;;;;;2.85;0.40;;;24.00;49.90;;;;;;6269028;28;20131;-67
2022/06/26 15:39:39;;;;;;;1.20;0.70;;;24.00;49.80;;;;;;6267585;28;20040;-67
2022/06/26 15:42:39;;;;;;;5.43;0.70;;;24.00;49.80;;;;;;6267624;28;20466;-68
2022/06/26 15:45:40;;;;;;;1.23;0.60;;;24.00;49.80;;;;;;6268698;28;20025;-67
2022/06/26 15:48:41;;;;;;;3.55;0.70;;;24.00;49.80;;;;;;6267189;28;20402;-68
2022/06/26 15:51:43;;;;;;;0.93;0.52;;;24.00;49.80;;;;;;6268790;28;20029;-67
2022/06/26 15:54:44;;;;;;;0.85;0.50;;;24.00;49.70;;;;;;6270007;28;20025;-67
2022/06/26 15:57:44;;;;;;;6.38;0.70;;;24.00;49.70;;;;;;6268604;28;20079;-67
2022/06/26 16:00:46;;;;;;;2.47;0.70;;;24.00;49.70;;;;;;6284237;28;20483;-68